Time;durP1;ratioP1;P1;durP2;ratioP2;P2;SDS_P1;SDS_P2;PMS_P1;PMS_P2;Temp;Humidity;BMP_temperature;BMP_pressure;BME280_temperature;BME280_humidity;BME280_pressure;Samples;Min_cycle;Max_cycle;Signal;HPM_P1;HPM_P2
2021/10/22 00:00:24;;;;;;;3.10;1.30;;;11.80;59.90;;;;;;6275902;22;20030;-65
2021/10/22 00:02:50;;;;;;;7.15;1.88;;;11.90;59.80;;;;;;6275860;22;20019;-65
2021/10/22 00:05:15;;;;;;;4.43;1.63;;;11.90;59.80;;;;;;6275788;22;20011;-66
2021/10/22 00:07:42;;;;;;;3.80;1.25;;;12.00;62.30;;;;;;6275739;22;20011;-66
2021/10/22 00:10:08;;;;;;;3.00;1.27;;;12.10;63.80;;;;;;6275744;22;20003;-67
2021/10/22 00:12:34;;;;;;;3.28;1.17;;;12.20;65.30;;;;;;6275680;22;20015;-67
2021/10/22 00:15:00;;;;;;;2.50;0.80;;;12.30;65.50;;;;;;6275475;22;20070;-66
2021/10/22 00:17:26;;;;;;;2.55;1.02;;;12.30;65.50;;;;;;6275825;22;20319;-67
2021/10/22 00:19:52;;;;;;;3.70;0.93;;;12.40;65.90;;;;;;6274417;22;20003;-67
2021/10/22 00:22:18;;;;;;;3.47;1.05;;;12.40;66.00;;;;;;6274848;22;20031;-67
2021/10/22 00:24:44;;;;;;;3.58;0.90;;;12.50;66.00;;;;;;6276824;22;20027;-68
2021/10/22 00:27:11;;;;;;;2.58;1.00;;;12.50;66.00;;;;;;6274954;22;20363;-67
2021/10/22 00:29:36;;;;;;;1.70;0.75;;;12.60;66.10;;;;;;6276604;22;20010;-68
2021/10/22 00:32:03;;;;;;;1.73;0.90;;;12.70;65.90;;;;;;6276783;22;20071;-68
2021/10/22 00:34:30;;;;;;;3.58;1.08;;;12.70;65.80;;;;;;6276708;22;20042;-68
2021/10/22 00:36:58;;;;;;;2.30;1.00;;;12.70;66.60;;;;;;6276680;22;20305;-69
2021/10/22 00:39:24;;;;;;;3.17;1.13;;;12.80;65.70;;;;;;6276796;22;20008;-68
2021/10/22 00:41:50;;;;;;;3.35;0.75;;;12.80;65.60;;;;;;6276700;22;20109;-69
2021/10/22 00:44:16;;;;;;;4.55;0.70;;;12.80;65.70;;;;;;6274845;22;20007;-68
2021/10/22 00:46:42;;;;;;;2.15;0.88;;;12.90;65.50;;;;;;6276596;22;20006;-69
2021/10/22 00:49:12;;;;;;;3.05;1.00;;;12.90;65.50;;;;;;6276581;22;19999;-69
2021/10/22 00:51:39;;;;;;;4.13;1.10;;;12.90;65.50;;;;;;6276729;22;20000;-69
2021/10/22 00:54:12;;;;;;;3.38;1.00;;;13.00;65.30;;;;;;6276486;22;20004;-69
2021/10/22 00:56:38;;;;;;;3.13;1.02;;;12.90;65.10;;;;;;6275013;22;20376;-69
2021/10/22 00:59:05;;;;;;;2.72;0.80;;;12.90;64.90;;;;;;6276498;22;20011;-69
2021/10/22 01:01:39;;;;;;;1.75;0.90;;;13.00;64.80;;;;;;6276448;22;20004;-69
2021/10/22 01:04:08;;;;;;;1.58;0.65;;;13.00;64.80;;;;;;6274728;22;20003;-69
2021/10/22 01:06:39;;;;;;;4.15;1.05;;;12.90;64.80;;;;;;6276452;22;20006;-69
2021/10/22 01:09:12;;;;;;;3.33;1.30;;;13.00;65.00;;;;;;6276463;22;20065;-69
2021/10/22 01:11:39;;;;;;;4.65;1.48;;;13.00;64.90;;;;;;6276290;22;20502;-70
2021/10/22 01:14:07;;;;;;;3.95;1.60;;;13.00;64.70;;;;;;6276225;22;20386;-69
2021/10/22 01:16:37;;;;;;;4.93;1.33;;;12.90;64.40;;;;;;6276404;22;20004;-69
2021/10/22 01:19:03;;;;;;;4.25;1.17;;;12.90;64.70;;;;;;6276466;22;20003;-70
2021/10/22 01:21:29;;;;;;;3.80;0.93;;;12.90;64.70;;;;;;6276331;22;20424;-69
2021/10/22 01:23:55;;;;;;;3.75;1.00;;;12.80;64.50;;;;;;6276402;22;20003;-69
2021/10/22 01:26:22;;;;;;;6.13;2.10;;;12.80;64.50;;;;;;6276160;22;20053;-69
2021/10/22 01:28:49;;;;;;;5.43;1.48;;;12.80;64.60;;;;;;6276346;22;20071;-69
2021/10/22 01:31:15;;;;;;;3.25;1.73;;;12.70;64.40;;;;;;6276371;22;20000;-69
2021/10/22 01:33:42;;;;;;;3.05;0.95;;;12.70;64.70;;;;;;6276211;22;20328;-68
2021/10/22 01:36:08;;;;;;;2.33;1.38;;;12.70;65.10;;;;;;6276108;22;20000;-69
2021/10/22 01:38:34;;;;;;;2.92;0.80;;;12.70;65.10;;;;;;6276292;22;19999;-69
2021/10/22 01:41:01;;;;;;;3.35;1.02;;;12.70;65.20;;;;;;6276252;22;19996;-69
2021/10/22 01:43:29;;;;;;;1.77;0.88;;;12.70;65.30;;;;;;6276173;22;20063;-68
2021/10/22 01:45:55;;;;;;;2.25;0.80;;;12.70;65.30;;;;;;6274584;22;20435;-69
2021/10/22 01:48:21;;;;;;;3.00;1.00;;;12.70;65.50;;;;;;6274660;22;20000;-69
2021/10/22 01:50:47;;;;;;;2.30;0.90;;;12.70;65.60;;;;;;6276143;22;20006;-68
2021/10/22 01:53:14;;;;;;;1.88;0.80;;;12.80;65.70;;;;;;6276267;22;20004;-68
2021/10/22 01:55:41;;;;;;;1.77;0.63;;;12.80;65.60;;;;;;6276570;22;20004;-68
2021/10/22 01:58:08;;;;;;;4.20;0.80;;;12.80;65.50;;;;;;6278509;22;20000;-68
2021/10/22 02:00:34;;;;;;;5.55;1.00;;;12.90;65.50;;;;;;6278390;22;20079;-69
2021/10/22 02:02:59;;;;;;;4.95;1.00;;;12.90;65.30;;;;;;6277962;22;20113;-69
2021/10/22 02:05:25;;;;;;;2.45;0.88;;;12.90;65.20;;;;;;6278246;22;20074;-68
2021/10/22 02:07:51;;;;;;;1.85;0.82;;;13.00;65.20;;;;;;6278154;22;20067;-69
2021/10/22 02:10:17;;;;;;;4.10;0.80;;;13.00;65.10;;;;;;6278215;22;20038;-69
2021/10/22 02:12:43;;;;;;;1.27;0.75;;;13.00;65.10;;;;;;6277749;22;20494;-69
2021/10/22 02:15:09;;;;;;;1.25;0.80;;;13.00;65.10;;;;;;6278064;22;20450;-68
2021/10/22 02:17:35;;;;;;;3.80;1.08;;;13.00;65.10;;;;;;6278103;22;20305;-68
2021/10/22 02:20:06;;;;;;;3.42;1.00;;;13.00;65.00;;;;;;6278239;22;20003;-68
2021/10/22 02:22:32;;;;;;;2.15;0.85;;;13.10;65.20;;;;;;6277924;22;20065;-68
2021/10/22 02:24:58;;;;;;;3.22;1.08;;;13.10;65.10;;;;;;6278082;22;20042;-68
2021/10/22 02:27:23;;;;;;;2.75;0.93;;;13.10;65.10;;;;;;6277916;22;20427;-69
2021/10/22 02:29:49;;;;;;;3.05;1.10;;;13.10;65.10;;;;;;6277962;22;20007;-69
2021/10/22 02:32:15;;;;;;;2.08;1.00;;;13.10;65.00;;;;;;6276301;22;20004;-69
2021/10/22 02:34:41;;;;;;;3.13;1.25;;;13.20;65.00;;;;;;6277884;22;20030;-69
2021/10/22 02:37:06;;;;;;;3.17;1.10;;;13.20;65.00;;;;;;6278071;22;20003;-69
2021/10/22 02:39:34;;;;;;;5.60;1.30;;;13.20;64.90;;;;;;6277992;22;20493;-69
2021/10/22 02:42:01;;;;;;;2.78;1.00;;;13.20;65.00;;;;;;6277821;22;20370;-69
2021/10/22 02:44:27;;;;;;;5.82;1.75;;;13.20;65.00;;;;;;6277819;22;20427;-69
2021/10/22 02:46:53;;;;;;;6.45;2.15;;;13.30;64.90;;;;;;6277606;22;20012;-69
2021/10/22 02:49:19;;;;;;;6.00;1.85;;;13.30;64.90;;;;;;6277739;22;20042;-69
2021/10/22 02:51:45;;;;;;;5.47;1.15;;;13.30;64.70;;;;;;6277583;22;19999;-69
2021/10/22 02:54:10;;;;;;;4.70;1.10;;;13.30;64.50;;;;;;6277661;22;20000;-69
2021/10/22 02:56:36;;;;;;;4.07;1.05;;;13.40;64.30;;;;;;6276034;22;19995;-69
2021/10/22 02:59:02;;;;;;;2.17;0.70;;;13.40;64.10;;;;;;6277833;22;20000;-69
2021/10/22 03:01:28;;;;;;;4.40;0.90;;;13.40;64.10;;;;;;6277643;22;20004;-69
2021/10/22 03:03:53;;;;;;;2.78;0.90;;;13.40;64.20;;;;;;6277680;22;20000;-68
2021/10/22 03:06:19;;;;;;;1.85;1.00;;;13.40;64.50;;;;;;6277351;22;20007;-68
2021/10/22 03:08:45;;;;;;;5.20;1.60;;;13.40;64.80;;;;;;6277559;22;20003;-68
2021/10/22 03:11:11;;;;;;;4.32;1.60;;;13.50;64.80;;;;;;6277609;22;20006;-69
2021/10/22 03:13:37;;;;;;;4.03;1.10;;;13.50;64.80;;;;;;6277356;22;20053;-69
2021/10/22 03:16:03;;;;;;;3.83;1.50;;;13.50;64.80;;;;;;6277408;22;20004;-69
2021/10/22 03:18:29;;;;;;;2.45;0.90;;;13.50;64.60;;;;;;6277550;22;20028;-68
2021/10/22 03:20:55;;;;;;;1.98;0.98;;;13.50;64.50;;;;;;6277464;22;20383;-69
2021/10/22 03:23:21;;;;;;;2.55;1.15;;;13.60;64.70;;;;;;6275699;22;20320;-69
2021/10/22 03:25:49;;;;;;;3.50;1.40;;;13.60;64.80;;;;;;6277074;22;20003;-69
2021/10/22 03:28:15;;;;;;;4.22;1.35;;;13.60;64.80;;;;;;6277304;22;19996;-69
2021/10/22 03:30:41;;;;;;;3.92;1.40;;;13.60;64.70;;;;;;6277197;22;20049;-68
2021/10/22 03:33:07;;;;;;;1.83;1.08;;;13.70;64.90;;;;;;6275621;22;20378;-68
2021/10/22 03:35:33;;;;;;;3.63;1.00;;;13.70;64.80;;;;;;6276985;22;20027;-68
2021/10/22 03:37:59;;;;;;;3.17;1.40;;;13.80;64.80;;;;;;6277082;22;20328;-68
2021/10/22 03:40:26;;;;;;;2.75;1.42;;;13.80;64.80;;;;;;6277159;22;20004;-68
2021/10/22 03:42:55;;;;;;;3.17;1.40;;;13.80;64.70;;;;;;6277152;22;20006;-68
2021/10/22 03:45:22;;;;;;;4.85;1.10;;;13.80;64.70;;;;;;6276984;22;20094;-67
2021/10/22 03:47:49;;;;;;;4.32;1.60;;;13.80;64.60;;;;;;6277092;22;20024;-68
2021/10/22 03:50:17;;;;;;;7.80;1.58;;;13.90;64.60;;;;;;6276833;22;20370;-67
2021/10/22 03:52:44;;;;;;;4.75;1.20;;;13.90;64.30;;;;;;6276584;22;20077;-66
2021/10/22 03:55:11;;;;;;;5.47;1.42;;;13.90;64.30;;;;;;6276922;22;20000;-67
2021/10/22 03:57:37;;;;;;;3.88;1.17;;;13.90;63.90;;;;;;6277086;22;19996;-67
2021/10/22 04:00:05;;;;;;;4.43;1.23;;;13.90;63.90;;;;;;6276868;22;20011;-67
2021/10/22 04:02:32;;;;;;;5.88;1.40;;;13.90;63.40;;;;;;6276831;22;20495;-66
2021/10/22 04:04:57;;;;;;;3.88;1.13;;;13.90;63.40;;;;;;6276533;22;20010;-67
2021/10/22 04:07:24;;;;;;;4.45;1.40;;;13.90;64.10;;;;;;6276700;22;20027;-66
2021/10/22 04:09:49;;;;;;;4.45;1.50;;;13.90;63.10;;;;;;6276656;22;20030;-66
2021/10/22 04:12:15;;;;;;;4.22;1.27;;;13.90;63.20;;;;;;6276456;22;20078;-66
2021/10/22 04:14:41;;;;;;;5.72;1.65;;;13.90;63.30;;;;;;6274723;22;20000;-66
2021/10/22 04:17:07;;;;;;;4.65;1.88;;;13.90;63.50;;;;;;6276475;22;20126;-66
2021/10/22 04:19:33;;;;;;;9.07;2.03;;;13.80;63.80;;;;;;6274815;22;20038;-66
2021/10/22 04:22:00;;;;;;;3.33;1.25;;;13.90;64.00;;;;;;6275185;22;20301;-66
2021/10/22 04:24:25;;;;;;;3.42;1.45;;;13.90;64.10;;;;;;6275145;22;20448;-65
2021/10/22 04:26:52;;;;;;;1.80;0.85;;;13.80;64.20;;;;;;6275594;22;20011;-65
2021/10/22 04:29:18;;;;;;;2.67;1.38;;;13.80;64.20;;;;;;6276200;22;20062;-65
2021/10/22 04:31:44;;;;;;;2.63;1.17;;;13.90;64.40;;;;;;6276398;22;20004;-66
2021/10/22 04:34:11;;;;;;;3.53;1.02;;;13.80;64.30;;;;;;6276476;22;20025;-66
2021/10/22 04:36:38;;;;;;;7.28;1.38;;;13.90;64.40;;;;;;6276581;22;20478;-66
2021/10/22 04:41:50;;;;;;;2.83;1.25;;;13.90;64.70;;;;;;6276161;22;20010;-65
2021/10/22 04:44:16;;;;;;;4.05;1.40;;;13.90;64.60;;;;;;6276433;22;20071;-65
2021/10/22 04:46:42;;;;;;;3.22;1.30;;;13.90;64.70;;;;;;6276362;22;20082;-65
2021/10/22 04:49:08;;;;;;;5.40;2.47;;;13.90;64.60;;;;;;6276362;22;20439;-65
2021/10/22 04:51:35;;;;;;;5.18;2.78;;;13.90;64.70;;;;;;6276465;22;20074;-65
2021/10/22 04:54:01;;;;;;;8.40;2.60;;;13.90;64.90;;;;;;6276301;22;19999;-64
2021/10/22 04:56:27;;;;;;;11.00;4.55;;;13.90;64.60;;;;;;6275846;22;20053;-65
2021/10/22 04:58:53;;;;;;;8.07;3.83;;;13.90;64.60;;;;;;6274574;22;20014;-64
2021/10/22 05:01:19;;;;;;;6.32;3.08;;;13.90;64.70;;;;;;6276036;22;20004;-64
2021/10/22 05:03:44;;;;;;;6.30;2.50;;;13.90;64.50;;;;;;6276177;22;20000;-64
2021/10/22 05:06:11;;;;;;;3.05;2.13;;;13.90;64.40;;;;;;6275621;22;20004;-64
2021/10/22 05:08:38;;;;;;;3.17;1.60;;;13.90;64.50;;;;;;6273782;22;20004;-64
2021/10/22 05:11:04;;;;;;;3.45;1.90;;;13.90;64.60;;;;;;6276171;22;20000;-64
2021/10/22 05:13:30;;;;;;;3.28;1.80;;;13.90;64.80;;;;;;6275483;22;20023;-64
2021/10/22 05:15:56;;;;;;;4.13;1.67;;;13.90;64.90;;;;;;6275974;22;19995;-64
2021/10/22 05:18:22;;;;;;;2.97;1.73;;;13.90;64.90;;;;;;6275967;22;20146;-65
2021/10/22 05:20:49;;;;;;;3.30;2.03;;;13.90;64.80;;;;;;6275549;22;20007;-64
2021/10/22 05:23:16;;;;;;;5.22;2.05;;;13.90;64.70;;;;;;6276063;22;20026;-64
2021/10/22 05:25:42;;;;;;;4.97;2.80;;;13.90;64.60;;;;;;6276002;22;20034;-64
2021/10/22 05:28:07;;;;;;;5.20;2.05;;;13.90;64.60;;;;;;6275699;22;20054;-64
2021/10/22 05:30:34;;;;;;;5.50;1.80;;;13.90;64.40;;;;;;6275517;22;20015;-64
2021/10/22 05:33:00;;;;;;;4.78;1.92;;;13.90;64.40;;;;;;6275935;22;20066;-64
2021/10/22 05:35:25;;;;;;;2.70;1.58;;;13.90;64.30;;;;;;6275972;22;20376;-66
2021/10/22 05:37:51;;;;;;;4.32;1.88;;;13.90;64.30;;;;;;6274266;22;20019;-66
2021/10/22 05:40:17;;;;;;;4.18;1.40;;;13.90;64.40;;;;;;6275567;22;20441;-63
2021/10/22 05:42:43;;;;;;;2.10;1.08;;;14.00;64.50;;;;;;6275809;22;20007;-63
2021/10/22 05:45:09;;;;;;;2.47;1.15;;;13.90;64.20;;;;;;6275925;22;19999;-65
2021/10/22 05:47:35;;;;;;;6.57;1.80;;;13.90;64.30;;;;;;6276072;22;20379;-65
2021/10/22 05:50:04;;;;;;;3.15;1.40;;;14.00;64.30;;;;;;6275413;22;20071;-64
2021/10/22 05:52:30;;;;;;;3.78;2.47;;;14.00;64.20;;;;;;6275800;22;20071;-66
2021/10/22 05:54:56;;;;;;;8.80;2.20;;;14.00;64.30;;;;;;6275942;22;20027;-66
2021/10/22 05:57:22;;;;;;;5.65;1.42;;;14.00;64.30;;;;;;6275441;22;20003;-66
2021/10/22 05:59:48;;;;;;;3.70;1.60;;;14.00;64.20;;;;;;6275946;22;20004;-66
2021/10/22 06:02:14;;;;;;;3.35;1.38;;;14.00;64.10;;;;;;6276086;22;20327;-66
2021/10/22 06:04:39;;;;;;;4.13;1.65;;;14.00;63.90;;;;;;6276059;22;20340;-66
2021/10/22 06:07:05;;;;;;;6.95;2.80;;;14.10;63.90;;;;;;6275877;22;20000;-66
2021/10/22 06:09:31;;;;;;;12.73;6.53;;;14.10;63.90;;;;;;6275481;22;20000;-66
2021/10/22 06:11:57;;;;;;;6.40;3.30;;;14.10;63.80;;;;;;6275875;22;20002;-66
2021/10/22 06:14:23;;;;;;;4.90;2.30;;;14.10;63.70;;;;;;6273836;22;20019;-66
2021/10/22 06:16:49;;;;;;;12.00;2.58;;;14.10;63.50;;;;;;6275766;22;20002;-66
2021/10/22 06:19:18;;;;;;;7.45;1.60;;;14.10;63.50;;;;;;6275833;22;20083;-67
2021/10/22 06:24:10;;;;;;;7.95;1.80;;;14.20;63.90;;;;;;6276119;22;20079;-66
2021/10/22 06:26:39;;;;;;;10.18;2.20;;;14.20;64.40;;;;;;6275805;22;20003;-66
2021/10/22 06:29:08;;;;;;;6.57;1.85;;;14.30;63.60;;;;;;6275611;22;20060;-66
2021/10/22 06:31:37;;;;;;;6.00;2.03;;;14.30;63.50;;;;;;6275918;22;20027;-67
2021/10/22 06:34:03;;;;;;;5.50;1.92;;;14.30;63.40;;;;;;6276008;22;19991;-66
2021/10/22 06:36:28;;;;;;;6.05;2.50;;;14.40;63.50;;;;;;6275996;22;20071;-66
2021/10/22 06:38:54;;;;;;;4.78;1.85;;;14.40;63.20;;;;;;6276006;22;20436;-66
2021/10/22 06:41:20;;;;;;;6.65;2.47;;;14.40;63.10;;;;;;6276022;22;20073;-66
2021/10/22 06:43:46;;;;;;;9.40;2.50;;;14.40;63.10;;;;;;6277703;22;20404;-66
2021/10/22 06:46:13;;;;;;;11.93;4.30;;;14.50;63.00;;;;;;6277763;22;20004;-67
2021/10/22 06:48:40;;;;;;;7.40;3.08;;;14.50;62.80;;;;;;6277693;22;20332;-66
2021/10/22 06:51:08;;;;;;;9.25;3.08;;;14.60;62.90;;;;;;6277697;22;20000;-67
2021/10/22 06:53:35;;;;;;;6.28;2.90;;;14.60;62.90;;;;;;6276127;22;20074;-66
2021/10/22 06:56:01;;;;;;;6.30;2.45;;;14.60;63.00;;;;;;6277584;22;19996;-66
2021/10/22 06:58:27;;;;;;;9.57;3.05;;;14.60;63.10;;;;;;6277341;22;20106;-67
2021/10/22 07:00:53;;;;;;;6.80;2.80;;;14.70;63.20;;;;;;6277485;22;20316;-66
2021/10/22 07:03:25;;;;;;;7.05;2.35;;;14.70;63.00;;;;;;6277517;22;20451;-67
2021/10/22 07:08:25;;;;;;;6.05;1.90;;;14.80;62.70;;;;;;6287925;22;20042;-66
2021/10/22 07:10:52;;;;;;;4.55;1.48;;;14.80;62.30;;;;;;6277373;22;20000;-66
2021/10/22 07:13:20;;;;;;;3.58;1.33;;;14.90;62.30;;;;;;6275613;22;20509;-67
2021/10/22 07:15:46;;;;;;;6.78;1.40;;;14.90;61.90;;;;;;6277364;22;20002;-66
2021/10/22 07:18:12;;;;;;;5.47;1.50;;;14.90;61.50;;;;;;6275857;22;20003;-66
2021/10/22 07:20:38;;;;;;;2.88;1.08;;;15.00;61.40;;;;;;6277327;22;20432;-66
2021/10/22 07:23:09;;;;;;;3.08;1.23;;;15.00;61.10;;;;;;6277326;22;20003;-66
2021/10/22 07:25:38;;;;;;;3.20;1.38;;;15.00;60.40;;;;;;6277333;22;20332;-66
2021/10/22 07:28:11;;;;;;;6.65;1.55;;;15.00;59.90;;;;;;6277302;22;20030;-66
2021/10/22 07:30:40;;;;;;;5.85;1.90;;;15.10;60.00;;;;;;6277495;22;20007;-67
2021/10/22 07:33:06;;;;;;;9.43;3.47;;;15.10;59.80;;;;;;6277209;22;19996;-66
2021/10/22 07:35:33;;;;;;;5.97;2.28;;;15.10;59.50;;;;;;6277302;22;20004;-66
2021/10/22 07:37:59;;;;;;;7.45;3.53;;;15.20;59.40;;;;;;6277135;22;20280;-67
2021/10/22 07:40:25;;;;;;;6.50;2.65;;;15.20;58.80;;;;;;6277224;22;20010;-66
2021/10/22 07:42:52;;;;;;;5.78;1.50;;;15.30;58.90;;;;;;6277091;22;20464;-66
2021/10/22 07:45:18;;;;;;;8.32;1.83;;;15.30;58.20;;;;;;6276735;22;20004;-67
2021/10/22 07:47:44;;;;;;;3.20;1.60;;;15.30;58.30;;;;;;6276977;22;20000;-66
2021/10/22 07:50:10;;;;;;;4.50;2.50;;;15.30;58.00;;;;;;6276896;22;20003;-66
2021/10/22 07:52:36;;;;;;;4.32;2.25;;;15.30;57.90;;;;;;6277003;22;20006;-66
2021/10/22 07:55:04;;;;;;;4.75;1.98;;;15.30;57.80;;;;;;6276618;22;20020;-66
2021/10/22 07:57:30;;;;;;;2.25;1.42;;;15.30;57.90;;;;;;6277125;22;20004;-66
2021/10/22 08:00:00;;;;;;;2.80;1.10;;;15.30;57.50;;;;;;6277034;22;20004;-66
2021/10/22 08:02:26;;;;;;;3.15;1.67;;;15.30;57.50;;;;;;6277144;22;20015;-66
2021/10/22 08:04:53;;;;;;;4.07;1.30;;;15.30;57.20;;;;;;6276931;22;20424;-66
2021/10/22 08:07:29;;;;;;;5.18;1.17;;;15.20;56.90;;;;;;6276941;22;20485;-66
2021/10/22 08:09:57;;;;;;;6.03;2.33;;;15.20;57.10;;;;;;6275273;22;20019;-66
2021/10/22 08:12:23;;;;;;;4.28;1.90;;;15.20;57.00;;;;;;6276758;22;20321;-66
2021/10/22 08:14:49;;;;;;;3.25;1.60;;;15.20;57.50;;;;;;6276474;22;20011;-67
2021/10/22 08:17:19;;;;;;;5.60;1.92;;;15.20;57.40;;;;;;6276462;22;19996;-66
2021/10/22 08:20:04;;;;;;;2.47;1.10;;;15.20;57.30;;;;;;6276524;22;20077;-67
2021/10/22 08:22:31;;;;;;;4.38;1.30;;;15.20;57.30;;;;;;6276632;22;20043;-67
2021/10/22 08:25:00;;;;;;;7.03;1.67;;;15.30;57.90;;;;;;6276055;22;20103;-66
2021/10/22 08:27:28;;;;;;;5.88;1.60;;;15.30;56.90;;;;;;6276633;22;20423;-66
2021/10/22 08:29:54;;;;;;;4.45;1.52;;;15.40;57.00;;;;;;6276521;22;20045;-66
2021/10/22 08:32:20;;;;;;;2.80;1.08;;;15.40;56.50;;;;;;6276782;22;20063;-66
2021/10/22 08:34:46;;;;;;;4.22;1.00;;;15.40;56.40;;;;;;6276716;22;20465;-66
2021/10/22 08:37:12;;;;;;;4.97;1.58;;;15.50;56.50;;;;;;6276567;22;20008;-66
2021/10/22 08:39:44;;;;;;;8.00;1.27;;;15.50;55.90;;;;;;6276387;22;20313;-66
2021/10/22 08:42:12;;;;;;;3.40;1.13;;;15.60;56.60;;;;;;6276433;22;20003;-66
2021/10/22 08:44:41;;;;;;;3.80;1.65;;;15.70;56.90;;;;;;6276524;22;20007;-66
2021/10/22 08:47:07;;;;;;;3.47;1.50;;;15.80;56.70;;;;;;6276335;22;20000;-67
2021/10/22 08:49:33;;;;;;;4.28;1.20;;;15.90;56.00;;;;;;6276222;22;20061;-67
2021/10/22 08:52:02;;;;;;;5.95;1.50;;;15.90;56.20;;;;;;6274976;22;19996;-66
2021/10/22 08:54:31;;;;;;;3.10;1.20;;;16.00;55.60;;;;;;6275000;22;20000;-66
2021/10/22 08:56:57;;;;;;;4.50;1.60;;;16.00;54.90;;;;;;6276427;22;20442;-67
2021/10/22 08:59:23;;;;;;;3.75;1.38;;;16.00;54.80;;;;;;6276600;22;20007;-65
2021/10/22 09:02:25;;;;;;;2.13;1.38;;;16.00;55.10;;;;;;6276431;22;20070;-65
2021/10/22 09:04:56;;;;;;;3.78;1.17;;;16.00;54.60;;;;;;6276392;22;20007;-65
2021/10/22 09:07:37;;;;;;;5.63;1.17;;;16.00;54.90;;;;;;6274916;22;20008;-65
2021/10/22 09:10:07;;;;;;;3.83;1.30;;;15.90;54.80;;;;;;6276282;22;20418;-66
2021/10/22 09:12:45;;;;;;;1.75;1.05;;;15.90;54.60;;;;;;6276207;22;20082;-66
2021/10/22 09:15:13;;;;;;;6.18;1.50;;;15.80;54.30;;;;;;6276151;22;20002;-65
2021/10/22 09:17:42;;;;;;;2.00;1.10;;;15.80;54.70;;;;;;6276342;22;20019;-65
2021/10/22 09:20:12;;;;;;;7.15;1.88;;;15.80;55.00;;;;;;6274703;22;20087;-66
2021/10/22 09:22:39;;;;;;;5.63;1.60;;;15.80;55.20;;;;;;6276313;22;20110;-65
2021/10/22 09:25:12;;;;;;;1.90;1.00;;;15.80;55.40;;;;;;6274743;22;20027;-65
2021/10/22 09:27:39;;;;;;;4.40;1.63;;;15.80;55.90;;;;;;6276496;22;20004;-66
2021/10/22 09:30:42;;;;;;;3.35;1.55;;;15.90;55.70;;;;;;6276277;22;20000;-66
2021/10/22 09:33:11;;;;;;;3.95;1.00;;;15.80;55.10;;;;;;6276038;22;20374;-66
2021/10/22 09:35:47;;;;;;;3.13;1.17;;;15.80;54.80;;;;;;6276210;22;19995;-66
2021/10/22 09:38:21;;;;;;;1.88;1.00;;;15.80;55.00;;;;;;6276189;22;20011;-66
2021/10/22 09:41:00;;;;;;;2.42;1.10;;;15.80;55.20;;;;;;6274632;22;20343;-65
2021/10/22 09:43:34;;;;;;;4.57;1.10;;;15.90;55.00;;;;;;6276255;22;20067;-66
2021/10/22 09:46:14;;;;;;;3.72;1.10;;;15.80;54.90;;;;;;6276108;22;20375;-66
2021/10/22 09:48:46;;;;;;;5.65;0.90;;;15.90;55.10;;;;;;6276165;22;20006;-65
2021/10/22 09:51:23;;;;;;;1.00;0.80;;;15.90;55.30;;;;;;6276139;22;20076;-65
2021/10/22 09:53:50;;;;;;;2.72;1.08;;;15.90;55.30;;;;;;6275940;22;19999;-65
2021/10/22 09:56:24;;;;;;;2.30;0.90;;;16.00;55.20;;;;;;6276117;22;20030;-65
2021/10/22 09:58:59;;;;;;;2.85;1.23;;;16.00;55.30;;;;;;6276178;22;20003;-65
2021/10/22 10:01:29;;;;;;;2.63;1.10;;;16.10;55.20;;;;;;6276164;22;20024;-66
2021/10/22 10:03:58;;;;;;;4.75;1.17;;;16.20;55.00;;;;;;6276292;22;20000;-65
2021/10/22 10:06:24;;;;;;;1.85;1.00;;;16.30;54.60;;;;;;6274294;22;20074;-65
2021/10/22 10:08:50;;;;;;;2.72;1.17;;;16.40;54.50;;;;;;6275750;22;20210;-65
2021/10/22 10:11:16;;;;;;;6.32;0.88;;;16.40;54.40;;;;;;6275512;22;19999;-66
2021/10/22 10:13:42;;;;;;;3.70;1.10;;;16.50;54.70;;;;;;6275174;22;20039;-65
2021/10/22 10:16:09;;;;;;;2.38;1.10;;;16.60;54.70;;;;;;6275388;22;20003;-66
2021/10/22 10:19:10;;;;;;;3.28;1.45;;;16.70;54.40;;;;;;6277573;22;20000;-65
2021/10/22 10:21:48;;;;;;;2.70;1.25;;;16.70;53.80;;;;;;6277805;22;19995;-66
2021/10/22 10:24:18;;;;;;;2.63;1.10;;;16.80;53.40;;;;;;6277787;22;19996;-66
2021/10/22 10:26:59;;;;;;;2.13;1.48;;;16.80;52.70;;;;;;6278151;22;20359;-66
2021/10/22 10:29:32;;;;;;;2.65;1.40;;;16.90;52.40;;;;;;6277615;22;20000;-66
2021/10/22 10:32:09;;;;;;;3.15;1.48;;;16.80;52.20;;;;;;6278074;22;19996;-66
2021/10/22 10:34:41;;;;;;;2.67;1.42;;;16.80;52.30;;;;;;6277470;22;20027;-65
2021/10/22 10:37:24;;;;;;;6.32;1.60;;;16.80;52.30;;;;;;6277478;22;20000;-65
2021/10/22 10:40:04;;;;;;;3.00;1.77;;;16.70;52.80;;;;;;6277744;22;19999;-66
2021/10/22 10:42:37;;;;;;;2.63;1.50;;;16.60;52.80;;;;;;6277445;22;20004;-66
2021/10/22 10:45:29;;;;;;;4.30;1.58;;;16.60;53.40;;;;;;6277386;22;20023;-67
2021/10/22 10:48:13;;;;;;;2.83;1.70;;;16.60;53.20;;;;;;6261436;22;20138;-66
2021/10/22 10:50:56;;;;;;;4.13;1.77;;;16.60;52.90;;;;;;6277421;22;20339;-66
2021/10/22 10:53:33;;;;;;;2.70;1.25;;;16.60;52.60;;;;;;6277517;22;20003;-66
2021/10/22 10:56:00;;;;;;;2.92;1.65;;;16.60;52.60;;;;;;6277456;22;19996;-66
2021/10/22 10:58:26;;;;;;;4.35;1.50;;;16.60;52.70;;;;;;6277553;22;20380;-66
2021/10/22 11:00:56;;;;;;;3.83;1.50;;;16.60;52.80;;;;;;6277601;22;20003;-66
2021/10/22 11:03:41;;;;;;;3.80;1.80;;;16.60;52.70;;;;;;6277270;22;20078;-66
2021/10/22 11:06:08;;;;;;;5.28;1.50;;;16.70;52.30;;;;;;6277620;22;20337;-66
2021/10/22 11:08:33;;;;;;;2.22;1.20;;;16.70;52.20;;;;;;6277288;22;20011;-66
2021/10/22 11:11:14;;;;;;;4.50;1.50;;;16.70;51.70;;;;;;6277388;22;20004;-66
2021/10/22 11:13:50;;;;;;;2.88;1.33;;;16.70;50.90;;;;;;6277077;22;20038;-66
2021/10/22 11:16:23;;;;;;;5.47;1.35;;;16.80;51.10;;;;;;6275562;22;20000;-66
2021/10/22 11:19:07;;;;;;;4.47;1.23;;;16.80;51.30;;;;;;6277429;22;20078;-66
2021/10/22 11:21:36;;;;;;;5.43;1.90;;;16.80;50.90;;;;;;6277224;22;20003;-66
2021/10/22 11:24:05;;;;;;;4.85;1.50;;;16.90;50.30;;;;;;6275693;22;20008;-66
2021/10/22 11:26:31;;;;;;;2.95;1.42;;;16.80;50.00;;;;;;6277185;22;19999;-66
2021/10/22 11:29:00;;;;;;;3.75;1.20;;;16.90;50.40;;;;;;6276428;22;20057;-66
2021/10/22 11:31:41;;;;;;;4.53;1.60;;;16.90;49.90;;;;;;6277087;22;20370;-67
2021/10/22 11:34:17;;;;;;;2.80;1.40;;;16.90;49.90;;;;;;6276704;22;20445;-66
2021/10/22 11:37:07;;;;;;;10.07;1.95;;;17.00;49.90;;;;;;6275378;22;20003;-65
2021/10/22 11:39:39;;;;;;;4.72;1.30;;;17.00;48.50;;;;;;6277363;22;20061;-66
2021/10/22 11:42:16;;;;;;;4.35;1.15;;;17.00;48.60;;;;;;6277211;22;20000;-65
2021/10/22 11:44:58;;;;;;;2.83;1.08;;;17.00;49.90;;;;;;6277199;22;20000;-66
2021/10/22 11:47:35;;;;;;;4.13;1.25;;;17.00;47.40;;;;;;6277095;22;20304;-66
2021/10/22 11:50:28;;;;;;;3.42;1.15;;;17.00;47.90;;;;;;6277010;22;20006;-65
2021/10/22 11:53:02;;;;;;;2.47;0.90;;;17.10;48.40;;;;;;6276962;22;20443;-66
2021/10/22 11:55:29;;;;;;;7.35;1.35;;;17.10;46.80;;;;;;6277180;22;20367;-66
2021/10/22 11:58:02;;;;;;;6.68;1.80;;;17.10;45.60;;;;;;6276135;22;19996;-65
2021/10/22 12:00:28;;;;;;;6.68;1.67;;;17.10;46.00;;;;;;6277121;22;20075;-66
2021/10/22 12:02:53;;;;;;;5.38;1.90;;;17.00;46.40;;;;;;6276669;22;20351;-66
2021/10/22 12:05:19;;;;;;;3.75;1.08;;;16.90;46.20;;;;;;6276801;22;20078;-65
2021/10/22 12:07:55;;;;;;;4.95;1.52;;;16.80;46.60;;;;;;6276879;22;20004;-66
2021/10/22 12:10:21;;;;;;;6.40;1.77;;;16.70;46.30;;;;;;6276654;22;20012;-65
2021/10/22 12:12:50;;;;;;;8.35;1.38;;;16.60;46.50;;;;;;6276408;22;20035;-66
2021/10/22 12:15:19;;;;;;;8.57;1.52;;;16.60;47.10;;;;;;6276748;22;20369;-66
2021/10/22 12:17:57;;;;;;;5.90;1.42;;;16.60;47.60;;;;;;6274913;22;20046;-66
2021/10/22 12:20:23;;;;;;;5.40;1.33;;;16.60;46.00;;;;;;6276829;22;20011;-65
2021/10/22 12:22:56;;;;;;;4.57;1.42;;;16.60;45.80;;;;;;6276521;22;20011;-66
2021/10/22 12:25:23;;;;;;;5.57;1.47;;;16.60;45.60;;;;;;6276556;22;19999;-66
2021/10/22 12:27:51;;;;;;;5.15;1.40;;;16.50;45.60;;;;;;6276738;22;20445;-66
2021/10/22 12:30:21;;;;;;;9.18;1.90;;;16.50;46.10;;;;;;6276489;22;20035;-66
2021/10/22 12:32:55;;;;;;;3.28;1.20;;;16.40;46.00;;;;;;6276514;22;20007;-66
2021/10/22 12:35:33;;;;;;;6.65;1.83;;;16.40;46.30;;;;;;6276718;22;20000;-66
2021/10/22 12:38:06;;;;;;;5.18;1.20;;;16.30;46.30;;;;;;6275000;22;20000;-66
2021/10/22 12:40:36;;;;;;;3.72;1.15;;;16.30;46.60;;;;;;6276083;22;20026;-66
2021/10/22 12:43:08;;;;;;;5.40;1.52;;;16.30;46.90;;;;;;6276529;22;19999;-66
2021/10/22 12:45:49;;;;;;;3.28;1.50;;;16.30;46.90;;;;;;6276451;22;20014;-66
2021/10/22 12:48:18;;;;;;;9.75;2.10;;;16.40;46.80;;;;;;6276286;22;20010;-66
2021/10/22 12:50:45;;;;;;;4.80;1.70;;;16.40;46.80;;;;;;6276418;22;20007;-66
2021/10/22 12:53:14;;;;;;;4.65;1.40;;;16.50;46.90;;;;;;6276453;22;20054;-66
2021/10/22 12:55:45;;;;;;;3.83;1.17;;;16.60;46.90;;;;;;6276489;22;20003;-66
2021/10/22 12:58:21;;;;;;;3.83;2.17;;;16.70;46.60;;;;;;6276422;22;20000;-66
2021/10/22 13:01:17;;;;;;;5.85;1.67;;;16.70;46.50;;;;;;6276763;22;20027;-66